createdAt,value
2023-05-04T00:00:02.577Z,7.57
2023-05-04T00:01:06.547Z,7.60
2023-05-04T00:02:10.421Z,7.62
2023-05-04T00:03:12.154Z,7.63
2023-05-04T00:04:14.952Z,7.65
2023-05-04T00:05:16.733Z,7.67
2023-05-04T00:06:18.279Z,7.54
2023-05-04T00:07:20.443Z,7.62
2023-05-04T00:08:22.074Z,7.57
2023-05-04T00:09:23.739Z,7.63
2023-05-04T00:10:28.977Z,7.61
2023-05-04T00:11:33.239Z,7.63
2023-05-04T00:12:35.932Z,7.63
2023-05-04T00:13:37.560Z,7.64
2023-05-04T00:14:41.309Z,7.65
2023-05-04T00:15:45.151Z,7.65
2023-05-04T00:16:46.820Z,7.63
2023-05-04T00:17:50.931Z,7.49
2023-05-04T00:18:52.627Z,7.60
2023-05-04T00:19:54.239Z,7.60
2023-05-04T00:20:58.190Z,7.61
2023-05-04T00:22:04.613Z,7.66
2023-05-04T00:23:06.388Z,7.65
2023-05-04T00:24:07.924Z,7.52
2023-05-04T00:25:09.688Z,7.59
2023-05-04T00:26:11.164Z,7.49
2023-05-04T00:27:13.002Z,7.61
2023-05-04T00:28:14.649Z,7.60
2023-05-04T00:29:16.197Z,7.60
2023-05-04T00:30:17.849Z,7.58
2023-05-04T00:31:22.036Z,7.45
2023-05-04T00:32:23.818Z,7.55
2023-05-04T00:33:25.309Z,7.39
2023-05-04T00:34:27.035Z,7.48
2023-05-04T00:35:31.529Z,7.46
2023-05-04T00:36:33.238Z,7.48
2023-05-04T00:37:34.872Z,7.49
2023-05-04T00:38:52.840Z,7.40
2023-05-04T00:39:54.415Z,7.40
2023-05-04T00:40:57.837Z,7.39
2023-05-04T00:42:01.725Z,7.36
2023-05-04T00:43:03.272Z,7.34
2023-05-04T00:44:05.974Z,7.34
2023-05-04T00:45:11.604Z,7.28
2023-05-04T00:46:13.298Z,7.12
2023-05-04T00:47:16.851Z,7.20
2023-05-04T00:48:18.702Z,7.22
2023-05-04T00:49:21.746Z,7.19
2023-05-04T00:50:27.130Z,7.22
2023-05-04T00:51:29.943Z,7.20
2023-05-04T00:52:33.790Z,7.18
2023-05-04T00:53:39.113Z,7.19
2023-05-04T00:54:43.092Z,7.22
2023-05-04T00:55:44.913Z,7.21
2023-05-04T00:56:47.656Z,7.23
2023-05-04T00:57:50.776Z,7.24
2023-05-04T00:58:58.509Z,7.22
2023-05-04T01:00:00.221Z,7.19
2023-05-04T01:01:02.231Z,7.08
2023-05-04T01:02:06.601Z,7.17
2023-05-04T01:03:09.865Z,7.22
2023-05-04T01:04:12.212Z,7.22
2023-05-04T01:05:13.991Z,7.21
2023-05-04T01:06:15.512Z,7.02
2023-05-04T01:07:29.227Z,7.08
2023-05-04T01:08:32.672Z,7.16
2023-05-04T01:09:44.734Z,7.15
2023-05-04T01:10:56.946Z,7.09
2023-05-04T01:12:17.090Z,7.12
2023-05-04T01:13:21.887Z,7.10
2023-05-04T01:14:26.815Z,7.09
2023-05-04T01:15:29.583Z,7.10
2023-05-04T01:16:31.260Z,7.08
2023-05-04T01:17:35.071Z,7.10
2023-05-04T01:18:36.668Z,7.09
2023-05-04T01:19:38.363Z,6.94
2023-05-04T01:20:39.982Z,7.02
2023-05-04T01:21:41.680Z,7.04
2023-05-04T01:22:43.257Z,6.90
2023-05-04T01:23:44.989Z,7.01
2023-05-04T01:24:46.691Z,6.87
2023-05-04T01:25:53.581Z,6.96
2023-05-04T01:27:15.393Z,6.89
2023-05-04T01:28:25.253Z,6.95
2023-05-04T01:29:42.597Z,6.91
2023-05-04T01:30:48.738Z,6.95
2023-05-04T01:31:52.492Z,6.97
2023-05-04T01:32:57.840Z,6.95
2023-05-04T01:33:59.731Z,6.94
2023-05-04T01:35:01.423Z,6.93
2023-05-04T01:36:03.439Z,6.80
2023-05-04T01:37:07.552Z,6.91
2023-05-04T01:38:11.092Z,6.90
2023-05-04T01:39:14.729Z,6.86
2023-05-04T01:40:16.330Z,6.85
2023-05-04T01:41:17.874Z,6.85
2023-05-04T01:42:19.834Z,6.81
2023-05-04T01:43:21.402Z,6.79
2023-05-04T01:44:23.022Z,6.77
2023-05-04T01:45:25.975Z,6.77
2023-05-04T01:46:30.428Z,6.79
2023-05-04T01:47:32.119Z,6.75
2023-05-04T01:48:36.576Z,6.73
2023-05-04T01:49:38.143Z,6.75
2023-05-04T01:50:42.703Z,6.74
2023-05-04T01:51:45.686Z,6.75
2023-05-04T01:52:47.232Z,6.75
2023-05-04T01:53:51.151Z,6.73
2023-05-04T01:54:52.780Z,6.74
2023-05-04T01:55:58.776Z,6.74
2023-05-04T01:57:01.741Z,6.75
2023-05-04T01:58:08.320Z,6.77
2023-05-04T01:59:09.883Z,6.74
2023-05-04T02:00:11.971Z,6.78
2023-05-04T02:01:19.639Z,6.79
2023-05-04T02:02:23.339Z,6.77
2023-05-04T02:03:26.430Z,6.78
2023-05-04T02:04:28.270Z,6.78
2023-05-04T02:05:29.899Z,6.71
2023-05-04T02:06:33.506Z,6.71
2023-05-04T02:07:35.159Z,6.69
2023-05-04T02:08:36.604Z,6.55
2023-05-04T02:09:38.490Z,6.67
2023-05-04T02:10:44.684Z,6.68
2023-05-04T02:11:46.583Z,6.71
2023-05-04T02:12:48.247Z,6.70
2023-05-04T02:13:49.771Z,6.55
2023-05-04T02:14:51.488Z,6.64
2023-05-04T02:15:53.081Z,6.52
2023-05-04T02:16:54.739Z,6.60
2023-05-04T02:17:57.695Z,6.60
2023-05-04T02:18:59.452Z,6.60
2023-05-04T02:20:00.990Z,6.42
2023-05-04T02:21:02.541Z,6.54
2023-05-04T02:22:04.092Z,6.53
2023-05-04T02:23:07.794Z,6.52
2023-05-04T02:24:09.712Z,6.50
2023-05-04T02:25:11.728Z,6.46
2023-05-04T02:26:15.770Z,6.45
2023-05-04T02:27:18.238Z,6.46
2023-05-04T02:28:19.936Z,6.30
2023-05-04T02:29:21.707Z,6.40
2023-05-04T02:30:27.771Z,6.40
2023-05-04T02:31:29.658Z,6.44
2023-05-04T02:32:33.561Z,6.43
2023-05-04T02:33:37.679Z,6.43
2023-05-04T02:34:41.417Z,6.40
2023-05-04T02:35:45.571Z,6.41
2023-05-04T02:36:47.366Z,6.38
2023-05-04T02:37:49.195Z,6.39
2023-05-04T02:38:51.398Z,6.24
2023-05-04T02:39:53.089Z,6.34
2023-05-04T02:40:54.854Z,6.33
2023-05-04T02:41:56.487Z,6.34
2023-05-04T02:42:58.070Z,6.31
2023-05-04T02:44:02.014Z,6.29
2023-05-04T02:45:07.378Z,6.16
2023-05-04T02:46:09.065Z,6.27
2023-05-04T02:47:10.526Z,6.10
2023-05-04T02:48:12.383Z,6.19
2023-05-04T02:49:13.897Z,6.02
2023-05-04T02:50:15.490Z,6.15
2023-05-04T02:51:20.645Z,6.15
2023-05-04T02:52:25.229Z,6.14
2023-05-04T02:53:26.795Z,6.14
2023-05-04T02:54:28.573Z,6.00
2023-05-04T02:55:32.459Z,6.12
2023-05-04T02:56:34.083Z,6.14
2023-05-04T02:57:38.123Z,5.95
2023-05-04T02:58:39.753Z,6.08
2023-05-04T02:59:41.374Z,6.09
2023-05-04T03:00:45.308Z,5.95
2023-05-04T03:01:46.950Z,6.05
2023-05-04T03:02:48.537Z,5.91
2023-05-04T03:03:50.292Z,6.04
2023-05-04T03:04:51.799Z,5.91
2023-05-04T03:05:53.331Z,6.04
2023-05-04T03:06:54.995Z,6.05
2023-05-04T03:07:56.579Z,5.91
2023-05-04T03:08:58.251Z,6.02
2023-05-04T03:09:59.906Z,5.90
2023-05-04T03:11:01.606Z,6.01
2023-05-04T03:12:04.271Z,6.04
2023-05-04T03:13:08.541Z,6.02
2023-05-04T03:14:12.538Z,6.06
2023-05-04T03:15:17.540Z,6.08
2023-05-04T03:16:19.189Z,6.08
2023-05-04T03:17:20.939Z,6.08
2023-05-04T03:18:22.531Z,5.94
2023-05-04T03:19:25.027Z,6.06
2023-05-04T03:20:31.202Z,6.10
2023-05-04T03:21:40.685Z,6.08
2023-05-04T03:22:44.904Z,6.07
2023-05-04T03:23:51.247Z,6.09
2023-05-04T03:24:52.817Z,6.04
2023-05-04T03:25:57.036Z,6.03
2023-05-04T03:26:59.055Z,6.06
2023-05-04T03:28:00.960Z,6.03
2023-05-04T03:29:02.665Z,6.02
2023-05-04T03:30:05.160Z,6.01
2023-05-04T03:31:08.891Z,5.94
2023-05-04T03:32:13.375Z,5.88
2023-05-04T03:33:18.065Z,5.87
2023-05-04T03:34:21.453Z,5.87
2023-05-04T03:35:26.053Z,5.85
2023-05-04T03:36:30.513Z,5.85
2023-05-04T03:37:34.242Z,5.82
2023-05-04T03:38:35.862Z,5.78
2023-05-04T03:39:37.675Z,5.71
2023-05-04T03:40:42.386Z,5.73
2023-05-04T03:41:44.201Z,5.73
2023-05-04T03:42:45.625Z,5.58
2023-05-04T03:43:49.533Z,5.68
2023-05-04T03:44:53.516Z,5.68
2023-05-04T03:45:55.162Z,5.71
2023-05-04T03:46:56.774Z,5.68
2023-05-04T03:47:58.876Z,5.72
2023-05-04T03:49:03.453Z,5.69
2023-05-04T03:50:08.162Z,5.68
2023-05-04T03:51:09.933Z,5.70
2023-05-04T03:52:11.531Z,5.71
2023-05-04T03:53:13.479Z,5.70
2023-05-04T03:54:16.016Z,5.71
2023-05-04T03:55:17.717Z,5.72
2023-05-04T03:56:23.727Z,5.75
2023-05-04T03:57:25.512Z,5.74
2023-05-04T03:58:32.154Z,5.71
2023-05-04T03:59:36.701Z,5.72
2023-05-04T04:00:40.690Z,5.72
2023-05-04T04:01:49.742Z,5.69
2023-05-04T04:02:53.948Z,5.70
2023-05-04T04:03:55.824Z,5.73
2023-05-04T04:04:57.909Z,5.72
2023-05-04T04:05:59.402Z,5.58
2023-05-04T04:07:01.496Z,5.66
2023-05-04T04:08:05.578Z,5.68
2023-05-04T04:09:07.522Z,5.71
2023-05-04T04:10:10.068Z,5.72
2023-05-04T04:11:11.699Z,5.73
2023-05-04T04:12:13.288Z,5.70
2023-05-04T04:13:15.126Z,5.73
2023-05-04T04:14:16.858Z,5.72
2023-05-04T04:15:18.525Z,5.69
2023-05-04T04:16:23.059Z,5.58
2023-05-04T04:17:24.780Z,5.64
2023-05-04T04:18:29.032Z,5.65
2023-05-04T04:19:30.572Z,5.50
2023-05-04T04:20:33.111Z,5.57
2023-05-04T04:21:37.267Z,5.61
2023-05-04T04:22:38.844Z,5.62
2023-05-04T04:23:41.509Z,5.63
2023-05-04T04:24:43.089Z,5.64
2023-05-04T04:25:48.009Z,5.67
2023-05-04T04:26:49.601Z,5.71
2023-05-04T04:27:51.556Z,5.73
2023-05-04T04:28:53.193Z,5.75
2023-05-04T04:29:57.643Z,5.74
2023-05-04T04:31:27.781Z,5.67
2023-05-04T04:32:34.084Z,5.75
2023-05-04T04:33:36.355Z,5.79
2023-05-04T04:34:38.680Z,5.81
2023-05-04T04:35:41.630Z,5.80
2023-05-04T04:36:46.158Z,5.81
2023-05-04T04:37:51.055Z,5.84
2023-05-04T04:38:52.655Z,5.85
2023-05-04T04:39:54.354Z,5.84
2023-05-04T04:40:55.891Z,5.72
2023-05-04T04:41:57.571Z,5.83
2023-05-04T04:43:04.681Z,5.88
2023-05-04T04:44:06.307Z,5.92
2023-05-04T04:45:08.225Z,5.81
2023-05-04T04:46:10.637Z,5.90
2023-05-04T04:47:12.348Z,5.94
2023-05-04T04:48:16.898Z,5.97
2023-05-04T04:49:18.402Z,5.80
2023-05-04T04:50:22.292Z,5.93
2023-05-04T04:51:26.497Z,5.94
2023-05-04T04:52:28.119Z,5.79
2023-05-04T04:53:32.068Z,5.91
2023-05-04T04:54:33.854Z,5.94
2023-05-04T04:55:35.548Z,5.77
2023-05-04T04:56:40.562Z,5.90
2023-05-04T04:57:42.258Z,5.89
2023-05-04T04:58:44.546Z,5.90
2023-05-04T04:59:49.489Z,5.91
2023-05-04T05:00:52.837Z,5.91
2023-05-04T05:01:54.572Z,5.93
2023-05-04T05:02:56.538Z,5.80
2023-05-04T05:03:58.277Z,5.92
2023-05-04T05:04:59.884Z,5.96
2023-05-04T05:06:01.921Z,5.82
2023-05-04T05:07:08.408Z,5.93
2023-05-04T05:08:10.036Z,5.98
2023-05-04T05:09:11.717Z,6.00
2023-05-04T05:10:13.332Z,5.89
2023-05-04T05:11:14.905Z,6.00
2023-05-04T05:12:21.881Z,6.04
2023-05-04T05:13:23.841Z,6.09
2023-05-04T05:14:27.897Z,6.11
2023-05-04T05:15:35.157Z,6.12
2023-05-04T05:16:40.548Z,6.14
2023-05-04T05:17:42.324Z,6.16
2023-05-04T05:18:49.080Z,6.23
2023-05-04T05:19:56.896Z,6.22
2023-05-04T05:20:58.790Z,6.24
2023-05-04T05:22:00.361Z,6.12
2023-05-04T05:23:02.035Z,6.24
2023-05-04T05:24:03.714Z,6.29
2023-05-04T05:25:06.642Z,6.30
2023-05-04T05:26:11.776Z,6.35
2023-05-04T05:27:13.320Z,6.39
2023-05-04T05:28:15.748Z,6.43
2023-05-04T05:29:17.421Z,6.50
2023-05-04T05:30:21.948Z,6.53
2023-05-04T05:31:29.728Z,6.58
2023-05-04T05:32:31.653Z,6.65
2023-05-04T05:33:35.411Z,6.68
2023-05-04T05:34:39.612Z,6.59
2023-05-04T05:35:41.578Z,6.68
2023-05-04T05:36:43.511Z,6.78
2023-05-04T05:37:47.643Z,6.80
2023-05-04T05:39:01.416Z,6.84
2023-05-04T05:40:08.514Z,6.89
2023-05-04T05:41:10.213Z,6.91
2023-05-04T05:42:11.876Z,6.81
2023-05-04T05:43:13.692Z,6.92
2023-05-04T05:44:15.334Z,7.00
2023-05-04T05:45:16.997Z,6.93
2023-05-04T05:46:22.721Z,7.07
2023-05-04T05:47:27.113Z,7.15
2023-05-04T05:48:28.849Z,7.19
2023-05-04T05:49:31.008Z,7.26
2023-05-04T05:50:32.637Z,7.28
2023-05-04T05:51:34.284Z,7.20
2023-05-04T05:52:35.959Z,7.34
2023-05-04T05:53:37.453Z,7.27
2023-05-04T05:54:39.204Z,7.41
2023-05-04T05:55:40.862Z,7.45
2023-05-04T05:56:42.297Z,7.39
2023-05-04T05:57:46.245Z,7.50
2023-05-04T05:58:48.121Z,7.56
2023-05-04T05:59:52.127Z,7.60
2023-05-04T06:00:53.884Z,7.53
2023-05-04T06:01:55.527Z,7.67
2023-05-04T06:02:57.142Z,7.74
2023-05-04T06:04:01.208Z,7.80
2023-05-04T06:05:05.373Z,7.85
2023-05-04T06:06:09.876Z,7.88
2023-05-04T06:07:12.765Z,7.95
2023-05-04T06:08:14.363Z,8.00
2023-05-04T06:09:16.008Z,8.02
2023-05-04T06:10:17.719Z,8.11
2023-05-04T06:11:19.290Z,8.01
2023-05-04T06:12:21.397Z,8.17
2023-05-04T06:13:25.406Z,8.20
2023-05-04T06:14:26.985Z,8.30
2023-05-04T06:15:28.584Z,8.34
2023-05-04T06:16:30.265Z,8.29
2023-05-04T06:17:32.050Z,8.43
2023-05-04T06:18:33.660Z,8.49
2023-05-04T06:19:37.711Z,8.54
2023-05-04T06:20:39.310Z,8.61
2023-05-04T06:21:41.023Z,8.66
2023-05-04T06:22:42.780Z,8.74
2023-05-04T06:23:47.065Z,8.77
2023-05-04T06:24:48.720Z,8.84
2023-05-04T06:25:50.335Z,8.76
2023-05-04T06:26:55.125Z,8.88
2023-05-04T06:27:59.066Z,8.97
2023-05-04T06:29:03.168Z,9.00
2023-05-04T06:30:05.846Z,9.03
2023-05-04T06:31:07.542Z,9.08
2023-05-04T06:32:14.625Z,9.12
2023-05-04T06:33:18.756Z,9.20
2023-05-04T06:34:20.431Z,9.26
2023-05-04T06:35:22.007Z,9.18
2023-05-04T06:36:26.000Z,9.27
2023-05-04T06:37:28.578Z,9.34
2023-05-04T06:38:30.298Z,9.39
2023-05-04T06:39:31.895Z,9.45
2023-05-04T06:40:33.529Z,9.52
2023-05-04T06:41:35.341Z,9.43
2023-05-04T06:42:40.050Z,9.55
2023-05-04T06:43:43.774Z,9.61
2023-05-04T06:44:45.366Z,9.67
2023-05-04T06:45:47.137Z,9.72
2023-05-04T06:46:51.319Z,9.78
2023-05-04T06:47:55.450Z,9.80
2023-05-04T06:48:58.096Z,9.87
2023-05-04T06:49:59.956Z,9.87
2023-05-04T06:51:03.063Z,9.94
2023-05-04T06:52:05.088Z,9.98
2023-05-04T06:53:10.564Z,10.04
2023-05-04T06:54:13.031Z,10.05
2023-05-04T06:55:14.613Z,10.08
2023-05-04T06:56:17.067Z,10.01
2023-05-04T06:57:18.770Z,10.10
2023-05-04T06:58:21.828Z,10.18
2023-05-04T06:59:23.557Z,10.25
2023-05-04T07:00:25.266Z,10.10
2023-05-04T07:01:27.159Z,10.26
2023-05-04T07:02:31.174Z,10.35
2023-05-04T07:03:32.931Z,10.19
2023-05-04T07:04:37.131Z,10.38
2023-05-04T07:05:38.600Z,10.35
2023-05-04T07:06:40.206Z,10.48
2023-05-04T07:07:41.974Z,10.53
2023-05-04T07:08:43.682Z,10.48
2023-05-04T07:09:47.890Z,10.45
2023-05-04T07:10:51.835Z,10.60
2023-05-04T07:11:53.456Z,10.68
2023-05-04T07:12:55.164Z,10.62
2023-05-04T07:13:56.949Z,10.73
2023-05-04T07:14:58.454Z,10.68
2023-05-04T07:16:00.164Z,10.72
2023-05-04T07:17:04.960Z,10.81
2023-05-04T07:18:06.667Z,10.88
2023-05-04T07:19:08.461Z,10.87
2023-05-04T07:20:11.270Z,10.96
2023-05-04T07:21:26.939Z,11.03
2023-05-04T07:22:34.011Z,11.09
2023-05-04T07:23:35.624Z,11.13
2023-05-04T07:24:37.358Z,11.11
2023-05-04T07:25:38.890Z,10.72
2023-05-04T07:26:40.495Z,11.00
2023-05-04T07:27:45.087Z,11.13
2023-05-04T07:28:46.884Z,11.22
2023-05-04T07:29:51.385Z,11.24
2023-05-04T07:30:53.435Z,11.21
2023-05-04T07:31:55.396Z,11.28
2023-05-04T07:32:57.057Z,11.34
2023-05-04T07:33:58.703Z,11.37
2023-05-04T07:35:02.745Z,11.31
2023-05-04T07:36:04.473Z,11.46
2023-05-04T07:37:08.224Z,11.53
2023-05-04T07:38:09.739Z,11.45
2023-05-04T07:39:11.866Z,11.61
2023-05-04T07:40:17.872Z,11.66
2023-05-04T07:41:21.869Z,11.75
2023-05-04T07:42:23.528Z,11.72
2023-05-04T07:43:25.222Z,11.48
2023-05-04T07:44:26.922Z,11.46
2023-05-04T07:45:28.547Z,11.49
2023-05-04T07:46:30.177Z,11.37
2023-05-04T07:47:32.126Z,11.66
2023-05-04T07:48:34.645Z,11.78
2023-05-04T07:49:38.555Z,11.75
2023-05-04T07:50:40.364Z,11.85
2023-05-04T07:51:42.207Z,11.80
2023-05-04T07:52:45.566Z,11.94
2023-05-04T07:53:47.218Z,12.06
2023-05-04T07:54:53.330Z,12.09
2023-05-04T07:55:57.502Z,12.17
2023-05-04T07:57:04.263Z,12.21
2023-05-04T07:58:06.601Z,12.28
2023-05-04T07:59:08.177Z,12.19
2023-05-04T08:00:10.930Z,12.30
2023-05-04T08:01:15.554Z,12.40
2023-05-04T08:02:17.308Z,12.44
2023-05-04T08:03:19.078Z,12.52
2023-05-04T08:04:21.174Z,12.41
2023-05-04T08:05:22.879Z,12.48
2023-05-04T08:06:27.593Z,12.59
2023-05-04T08:07:29.163Z,12.71
2023-05-04T08:08:30.925Z,12.79
2023-05-04T08:09:32.717Z,12.83
2023-05-04T08:10:40.808Z,12.84
2023-05-04T08:11:42.586Z,12.91
2023-05-04T08:12:46.527Z,12.92
2023-05-04T08:13:49.199Z,12.97
2023-05-04T08:14:51.542Z,12.95
2023-05-04T08:15:53.219Z,13.05
2023-05-04T08:16:55.027Z,13.08
2023-05-04T08:17:56.644Z,13.14
2023-05-04T08:19:01.429Z,13.19
2023-05-04T08:20:03.336Z,13.28
2023-05-04T08:21:05.388Z,13.34
2023-05-04T08:22:09.449Z,13.39
2023-05-04T08:23:11.337Z,13.41
2023-05-04T08:24:12.885Z,13.43
2023-05-04T08:25:15.010Z,13.53
2023-05-04T08:26:20.025Z,13.55
2023-05-04T08:27:21.665Z,13.51
2023-05-04T08:28:23.490Z,13.47
2023-05-04T08:29:25.071Z,13.56
2023-05-04T08:30:32.097Z,13.57
2023-05-04T08:31:34.958Z,13.65
2023-05-04T08:32:36.654Z,13.67
2023-05-04T08:33:38.184Z,13.58
2023-05-04T08:34:39.831Z,13.74
2023-05-04T08:35:41.517Z,13.76
2023-05-04T08:36:42.981Z,13.65
2023-05-04T08:37:44.906Z,13.81
2023-05-04T08:38:46.464Z,13.90
2023-05-04T08:39:48.230Z,13.97
2023-05-04T08:40:50.663Z,13.98
2023-05-04T08:41:52.391Z,14.04
2023-05-04T08:42:55.996Z,14.13
2023-05-04T08:43:58.882Z,14.19
2023-05-04T08:45:01.061Z,14.26
2023-05-04T08:46:04.008Z,14.20
2023-05-04T08:47:05.844Z,14.27
2023-05-04T08:48:08.335Z,14.22
2023-05-04T08:49:10.611Z,14.29
2023-05-04T08:50:12.945Z,14.44
2023-05-04T08:51:15.415Z,14.52
2023-05-04T08:52:20.003Z,14.57
2023-05-04T08:53:23.449Z,14.59
2023-05-04T08:54:27.264Z,14.69
2023-05-04T08:55:34.392Z,14.76
2023-05-04T08:56:38.352Z,14.82
2023-05-04T08:57:42.854Z,14.95
2023-05-04T08:58:50.086Z,15.01
2023-05-04T08:59:53.765Z,15.10
2023-05-04T09:00:57.646Z,15.08
2023-05-04T09:02:01.682Z,15.07
2023-05-04T09:03:04.784Z,15.03
2023-05-04T09:04:06.722Z,15.01
2023-05-04T09:05:11.400Z,15.05
2023-05-04T09:06:14.137Z,15.10
2023-05-04T09:07:17.344Z,15.13
2023-05-04T09:08:20.897Z,15.11
2023-05-04T09:09:26.541Z,15.10
2023-05-04T09:10:31.052Z,15.12
2023-05-04T09:11:32.699Z,15.18
2023-05-04T09:12:37.999Z,15.16
2023-05-04T09:13:39.752Z,15.21
2023-05-04T09:14:44.509Z,15.22
2023-05-04T09:15:56.253Z,15.14
2023-05-04T09:16:58.148Z,15.21
2023-05-04T09:18:05.637Z,15.28
2023-05-04T09:19:20.496Z,15.23
2023-05-04T09:20:22.267Z,15.31
2023-05-04T09:21:30.970Z,15.12
2023-05-04T09:22:33.418Z,15.31
2023-05-04T09:23:53.714Z,15.31
2023-05-04T09:25:12.257Z,15.42
2023-05-04T09:26:14.420Z,15.48
2023-05-04T09:27:18.394Z,15.51
2023-05-04T09:28:22.426Z,15.58
2023-05-04T09:29:25.762Z,15.60
2023-05-04T09:30:27.946Z,15.58
2023-05-04T09:31:29.618Z,15.64
2023-05-04T09:32:31.196Z,15.52
2023-05-04T09:33:33.097Z,15.64
2023-05-04T09:35:41.427Z,15.74
2023-05-04T09:36:43.213Z,15.70
2023-05-04T09:37:48.736Z,15.70
2023-05-04T09:38:50.384Z,15.76
2023-05-04T09:39:57.598Z,15.79
2023-05-04T09:40:59.167Z,15.83
2023-05-04T09:42:00.883Z,15.93
2023-05-04T09:43:02.624Z,15.87
2023-05-04T09:44:05.033Z,16.04
2023-05-04T09:45:08.960Z,16.04
2023-05-04T09:46:19.996Z,16.11
2023-05-04T09:47:31.549Z,16.07
2023-05-04T09:48:33.578Z,16.14
2023-05-04T09:49:36.980Z,16.15
2023-05-04T09:50:54.592Z,16.18
2023-05-04T09:51:58.404Z,16.20
2023-05-04T09:53:04.938Z,16.23
2023-05-04T09:54:06.650Z,16.28
2023-05-04T09:55:14.689Z,16.31
2023-05-04T09:56:41.718Z,16.28
2023-05-04T09:57:45.174Z,16.41
2023-05-04T09:58:47.959Z,16.45
2023-05-04T09:59:51.198Z,16.46
2023-05-04T10:00:53.795Z,16.48
2023-05-04T10:01:55.472Z,16.52
2023-05-04T10:02:57.414Z,16.40
2023-05-04T10:03:59.167Z,16.47
2023-05-04T10:05:05.447Z,16.47
2023-05-04T10:06:08.963Z,16.53
2023-05-04T10:07:10.953Z,16.57
2023-05-04T10:08:13.442Z,16.46
2023-05-04T10:09:17.540Z,16.51
2023-05-04T10:10:19.470Z,16.65
2023-05-04T10:11:26.248Z,16.66
2023-05-04T10:12:27.990Z,16.71
2023-05-04T10:13:29.726Z,16.65
2023-05-04T10:14:32.073Z,16.62
2023-05-04T10:15:34.214Z,16.73
2023-05-04T10:16:40.989Z,16.81
2023-05-04T10:18:03.737Z,16.76
2023-05-04T10:19:35.684Z,16.82
2023-05-04T10:20:49.361Z,16.83
2023-05-04T10:22:18.426Z,16.86
2023-05-04T10:24:01.573Z,16.89
2023-05-04T10:25:19.911Z,16.87
2023-05-04T10:26:41.509Z,16.98
2023-05-04T10:28:08.627Z,17.07
2023-05-04T10:29:23.776Z,17.15
2023-05-04T10:30:25.907Z,17.11
2023-05-04T10:31:42.420Z,17.13
2023-05-04T10:32:44.646Z,17.21
2023-05-04T10:33:46.393Z,17.23
2023-05-04T10:34:50.928Z,16.95
2023-05-04T10:35:54.106Z,17.23
2023-05-04T10:36:58.906Z,17.29
2023-05-04T10:38:00.902Z,17.33
2023-05-04T10:39:02.533Z,17.41
2023-05-04T10:40:10.977Z,17.44
2023-05-04T10:41:20.319Z,17.44
2023-05-04T10:42:22.109Z,17.51
2023-05-04T10:43:28.891Z,17.45
2023-05-04T10:44:32.375Z,17.56
2023-05-04T10:45:38.287Z,17.65
2023-05-04T10:46:40.049Z,17.68
2023-05-04T10:47:41.572Z,17.55
2023-05-04T10:48:45.645Z,17.59
2023-05-04T10:49:47.234Z,17.76
2023-05-04T10:50:50.488Z,17.80
2023-05-04T10:52:17.126Z,17.88
2023-05-04T10:53:18.833Z,17.94
2023-05-04T10:54:23.004Z,17.96
2023-05-04T10:55:24.662Z,17.71
2023-05-04T10:56:27.998Z,17.95
2023-05-04T10:57:30.192Z,18.07
2023-05-04T10:58:31.873Z,18.16
2023-05-04T10:59:36.873Z,18.08
2023-05-04T11:00:40.977Z,18.19
2023-05-04T11:01:46.485Z,18.25
2023-05-04T11:02:52.452Z,18.24
2023-05-04T11:03:54.649Z,18.24
2023-05-04T11:05:04.954Z,18.25
2023-05-04T11:06:26.254Z,18.28
2023-05-04T11:07:38.221Z,18.45
2023-05-04T11:08:40.034Z,18.45
2023-05-04T11:09:42.594Z,18.38
2023-05-04T11:10:46.487Z,18.49
2023-05-04T11:11:48.691Z,18.49
2023-05-04T11:12:52.793Z,18.56
2023-05-04T11:13:57.019Z,18.63
2023-05-04T11:15:10.133Z,18.72
2023-05-04T11:16:12.936Z,18.82
2023-05-04T11:18:31.573Z,18.76
2023-05-04T11:19:50.911Z,18.59
2023-05-04T11:20:52.574Z,18.80
2023-05-04T11:21:54.190Z,18.84
2023-05-04T11:22:55.722Z,18.74
2023-05-04T11:24:00.839Z,18.90
2023-05-04T11:25:02.676Z,18.92
2023-05-04T11:26:07.430Z,19.00
2023-05-04T11:27:29.093Z,18.92
2023-05-04T11:28:37.421Z,19.04
2023-05-04T11:29:39.026Z,19.06
2023-05-04T11:30:42.335Z,19.03
2023-05-04T11:31:54.042Z,19.12
2023-05-04T11:32:57.423Z,19.15
2023-05-04T11:33:59.330Z,19.18
2023-05-04T11:35:01.337Z,19.09
2023-05-04T11:36:05.702Z,19.23
2023-05-04T11:37:07.658Z,19.26
2023-05-04T11:38:09.952Z,19.11
2023-05-04T11:39:11.638Z,19.21
2023-05-04T11:40:15.171Z,19.25
2023-05-04T11:41:19.639Z,19.28
2023-05-04T11:42:21.288Z,19.36
2023-05-04T11:43:23.036Z,19.32
2023-05-04T11:44:26.832Z,19.42
2023-05-04T11:45:30.873Z,19.45
2023-05-04T11:46:34.477Z,19.45
2023-05-04T11:47:38.582Z,19.49
2023-05-04T11:48:40.868Z,19.45
2023-05-04T11:49:43.929Z,19.44
2023-05-04T11:50:46.771Z,19.51
2023-05-04T11:51:48.652Z,19.43
2023-05-04T11:52:50.335Z,19.56
2023-05-04T11:53:51.834Z,19.58
2023-05-04T11:54:57.367Z,19.72
2023-05-04T11:56:04.928Z,19.78
2023-05-04T11:57:06.809Z,19.83
2023-05-04T11:58:10.220Z,19.79
2023-05-04T11:59:14.348Z,19.85
2023-05-04T12:00:17.095Z,19.82
2023-05-04T12:01:21.174Z,19.90
2023-05-04T12:02:23.207Z,19.88
2023-05-04T12:03:43.961Z,19.88
2023-05-04T12:04:55.421Z,19.89
2023-05-04T12:06:00.236Z,19.91
2023-05-04T12:07:07.661Z,19.81
2023-05-04T12:08:12.643Z,19.89
2023-05-04T12:09:14.342Z,19.93
2023-05-04T12:10:24.606Z,19.83
2023-05-04T12:11:27.467Z,19.93
2023-05-04T12:12:35.870Z,19.92
2023-05-04T12:13:37.752Z,19.95
2023-05-04T12:14:52.994Z,19.96
2023-05-04T12:15:54.628Z,20.03
2023-05-04T12:17:02.969Z,19.86
2023-05-04T12:18:04.818Z,20.03
2023-05-04T12:19:12.723Z,19.93
2023-05-04T12:20:24.157Z,20.01
2023-05-04T12:21:25.761Z,19.94
2023-05-04T12:22:35.190Z,20.06
2023-05-04T12:23:37.375Z,20.02
2023-05-04T12:24:39.885Z,20.01
2023-05-04T12:25:54.673Z,20.01
2023-05-04T12:26:59.599Z,20.01
2023-05-04T12:28:02.019Z,20.03
2023-05-04T12:29:03.644Z,20.03
2023-05-04T12:30:11.185Z,20.15
2023-05-04T12:31:13.028Z,20.20
2023-05-04T12:32:16.965Z,20.24
2023-05-04T12:33:18.542Z,20.24
2023-05-04T12:34:20.127Z,20.20
2023-05-04T12:35:21.792Z,20.24
2023-05-04T12:36:23.327Z,20.21
2023-05-04T12:37:25.216Z,20.25
2023-05-04T12:38:29.566Z,20.27
2023-05-04T12:39:32.607Z,20.28
2023-05-04T12:40:34.373Z,20.33
2023-05-04T12:41:35.946Z,20.32
2023-05-04T12:42:37.740Z,20.35
2023-05-04T12:43:39.464Z,20.39
2023-05-04T12:44:41.059Z,20.33
2023-05-04T12:45:42.756Z,20.49
2023-05-04T12:46:44.392Z,20.52
2023-05-04T12:47:48.324Z,20.52
2023-05-04T12:48:49.995Z,20.56
2023-05-04T12:49:51.560Z,20.53
2023-05-04T12:50:53.193Z,20.62
2023-05-04T12:51:58.082Z,20.61
2023-05-04T12:52:59.829Z,20.60
2023-05-04T12:54:01.454Z,20.45
2023-05-04T12:55:03.184Z,20.59
2023-05-04T12:56:05.401Z,20.63
2023-05-04T12:57:07.405Z,20.67
2023-05-04T12:58:11.245Z,20.71
2023-05-04T12:59:12.827Z,20.65
2023-05-04T13:00:15.702Z,20.73
2023-05-04T13:01:20.333Z,20.77
2023-05-04T13:02:25.152Z,20.86
2023-05-04T13:03:26.986Z,20.79
2023-05-04T13:04:28.664Z,20.82
2023-05-04T13:05:30.376Z,20.74
2023-05-04T13:06:32.088Z,20.83
2023-05-04T13:07:34.133Z,20.83
2023-05-04T13:08:35.807Z,20.94
2023-05-04T13:09:37.356Z,20.91
2023-05-04T13:10:39.060Z,20.97
2023-05-04T13:11:40.780Z,21.07
2023-05-04T13:12:43.549Z,21.00
2023-05-04T13:13:47.224Z,21.15
2023-05-04T13:14:55.291Z,21.11
2023-05-04T13:15:57.503Z,21.16
2023-05-04T13:16:59.242Z,21.14
2023-05-04T13:18:01.591Z,21.21
2023-05-04T13:19:03.711Z,21.19
2023-05-04T13:20:08.924Z,21.21
2023-05-04T13:21:11.454Z,21.22
2023-05-04T13:22:13.124Z,21.22
2023-05-04T13:23:17.057Z,21.17
2023-05-04T13:24:20.967Z,21.25
2023-05-04T13:25:22.999Z,21.24
2023-05-04T13:26:24.593Z,21.29
2023-05-04T13:27:26.279Z,21.23
2023-05-04T13:28:27.990Z,21.38
2023-05-04T13:29:29.450Z,21.26
2023-05-04T13:30:31.163Z,21.39
2023-05-04T13:31:32.737Z,21.32
2023-05-04T13:32:36.641Z,21.35
2023-05-04T13:33:38.743Z,21.41
2023-05-04T13:34:42.480Z,21.48
2023-05-04T13:35:46.186Z,21.47
2023-05-04T13:36:47.930Z,21.48
2023-05-04T13:37:49.404Z,21.39
2023-05-04T13:38:51.286Z,21.50
2023-05-04T13:39:52.946Z,21.51
2023-05-04T13:40:55.137Z,21.44
2023-05-04T13:41:56.709Z,21.58
2023-05-04T13:43:00.761Z,21.57
2023-05-04T13:44:02.375Z,21.57
2023-05-04T13:45:07.023Z,21.60
2023-05-04T13:46:08.817Z,21.69
2023-05-04T13:47:13.214Z,21.72
2023-05-04T13:48:17.120Z,21.76
2023-05-04T13:49:18.783Z,21.72
2023-05-04T13:50:20.250Z,21.55
2023-05-04T13:51:23.923Z,21.75
2023-05-04T13:52:29.386Z,21.66
2023-05-04T13:53:31.019Z,21.83
2023-05-04T13:54:32.653Z,21.84
2023-05-04T13:55:34.266Z,21.93
2023-05-04T13:56:35.847Z,22.06